sensor_id;sensor_type;location;lat;lon;timestamp;pressure;altitude;pressure_sealevel;temperature;humidity
14242;BME280;7205;50.864;12.766;2022-10-20T00:01:18;98511.59;;;6.54;91.95
14242;BME280;7205;50.864;12.766;2022-10-20T00:03:49;98509.97;;;6.53;91.69
14242;BME280;7205;50.864;12.766;2022-10-20T00:06:19;98517.81;;;6.53;91.65
14242;BME280;7205;50.864;12.766;2022-10-20T00:08:46;98515.47;;;6.50;92.06
14242;BME280;7205;50.864;12.766;2022-10-20T00:11:19;98514.75;;;6.48;91.64
14242;BME280;7205;50.864;12.766;2022-10-20T00:13:49;98512.94;;;6.48;91.65
14242;BME280;7205;50.864;12.766;2022-10-20T00:16:16;98506.19;;;6.46;91.53
14242;BME280;7205;50.864;12.766;2022-10-20T00:18:47;98494.03;;;6.45;91.76
14242;BME280;7205;50.864;12.766;2022-10-20T00:21:17;98499.38;;;6.43;91.49
14242;BME280;7205;50.864;12.766;2022-10-20T00:23:44;98498.69;;;6.41;91.51
14242;BME280;7205;50.864;12.766;2022-10-20T00:26:13;98500.63;;;6.39;92.11
14242;BME280;7205;50.864;12.766;2022-10-20T00:28:40;98492.88;;;6.38;92.39
14242;BME280;7205;50.864;12.766;2022-10-20T00:31:07;98494.66;;;6.37;92.20
14242;BME280;7205;50.864;12.766;2022-10-20T00:33:34;98493.00;;;6.36;92.57
14242;BME280;7205;50.864;12.766;2022-10-20T00:36:05;98490.38;;;6.36;92.08
14242;BME280;7205;50.864;12.766;2022-10-20T00:38:32;98485.13;;;6.36;92.64
14242;BME280;7205;50.864;12.766;2022-10-20T00:41:00;98478.22;;;6.35;92.51
14242;BME280;7205;50.864;12.766;2022-10-20T00:43:40;98473.09;;;6.33;92.26
14242;BME280;7205;50.864;12.766;2022-10-20T00:46:07;98468.00;;;6.32;92.30
14242;BME280;7205;50.864;12.766;2022-10-20T00:48:36;98460.38;;;6.29;92.65
14242;BME280;7205;50.864;12.766;2022-10-20T00:51:05;98453.44;;;6.28;92.64
14242;BME280;7205;50.864;12.766;2022-10-20T00:53:32;98454.56;;;6.25;92.42
14242;BME280;7205;50.864;12.766;2022-10-20T00:56:00;98451.34;;;6.22;92.37
14242;BME280;7205;50.864;12.766;2022-10-20T00:58:27;98456.88;;;6.19;92.37
14242;BME280;7205;50.864;12.766;2022-10-20T01:00:56;98444.94;;;6.15;92.08
14242;BME280;7205;50.864;12.766;2022-10-20T01:03:27;98447.00;;;6.11;91.97
14242;BME280;7205;50.864;12.766;2022-10-20T01:05:56;98450.84;;;6.07;92.11
14242;BME280;7205;50.864;12.766;2022-10-20T01:08:24;98445.16;;;6.02;92.19
14242;BME280;7205;50.864;12.766;2022-10-20T01:10:59;98448.97;;;5.98;92.49
14242;BME280;7205;50.864;12.766;2022-10-20T01:13:32;98452.69;;;5.96;92.62
14242;BME280;7205;50.864;12.766;2022-10-20T01:16:08;98441.63;;;5.92;92.08
14242;BME280;7205;50.864;12.766;2022-10-20T01:18:42;98449.75;;;5.89;91.99
14242;BME280;7205;50.864;12.766;2022-10-20T01:21:25;98450.09;;;5.85;92.40
14242;BME280;7205;50.864;12.766;2022-10-20T01:24:12;98445.00;;;5.83;92.34
14242;BME280;7205;50.864;12.766;2022-10-20T01:27:14;98449.63;;;5.80;92.66
14242;BME280;7205;50.864;12.766;2022-10-20T01:29:50;98439.53;;;5.75;92.82
14242;BME280;7205;50.864;12.766;2022-10-20T01:32:22;98441.44;;;5.73;93.39
14242;BME280;7205;50.864;12.766;2022-10-20T01:34:56;98446.81;;;5.72;93.17
14242;BME280;7205;50.864;12.766;2022-10-20T01:37:34;98439.19;;;5.69;93.49
14242;BME280;7205;50.864;12.766;2022-10-20T01:40:09;98428.13;;;5.65;93.00
14242;BME280;7205;50.864;12.766;2022-10-20T01:42:41;98420.53;;;5.62;93.34
14242;BME280;7205;50.864;12.766;2022-10-20T01:45:10;98423.41;;;5.59;93.61
14242;BME280;7205;50.864;12.766;2022-10-20T01:47:39;98406.28;;;5.55;93.23
14242;BME280;7205;50.864;12.766;2022-10-20T01:50:09;98417.59;;;5.56;93.98
14242;BME280;7205;50.864;12.766;2022-10-20T01:52:37;98415.09;;;5.54;94.18
14242;BME280;7205;50.864;12.766;2022-10-20T01:55:10;98406.78;;;5.49;94.00
14242;BME280;7205;50.864;12.766;2022-10-20T01:57:45;98404.25;;;5.48;93.87
14242;BME280;7205;50.864;12.766;2022-10-20T02:00:20;98390.47;;;5.46;94.46
14242;BME280;7205;50.864;12.766;2022-10-20T02:02:54;98390.72;;;5.43;94.53
14242;BME280;7205;50.864;12.766;2022-10-20T02:05:33;98380.50;;;5.40;94.53
14242;BME280;7205;50.864;12.766;2022-10-20T02:08:08;98380.63;;;5.38;94.61
14242;BME280;7205;50.864;12.766;2022-10-20T02:10:43;98376.34;;;5.37;94.85
14242;BME280;7205;50.864;12.766;2022-10-20T02:13:14;98369.31;;;5.38;95.42
14242;BME280;7205;50.864;12.766;2022-10-20T02:15:44;98366.00;;;5.36;95.65
14242;BME280;7205;50.864;12.766;2022-10-20T02:18:15;98369.44;;;5.36;95.52
14242;BME280;7205;50.864;12.766;2022-10-20T02:20:46;98364.44;;;5.33;95.94
14242;BME280;7205;50.864;12.766;2022-10-20T02:23:15;98358.50;;;5.31;95.11
14242;BME280;7205;50.864;12.766;2022-10-20T02:25:42;98354.34;;;5.29;95.62
14242;BME280;7205;50.864;12.766;2022-10-20T02:28:12;98355.19;;;5.29;96.10
14242;BME280;7205;50.864;12.766;2022-10-20T02:30:40;98349.25;;;5.27;95.77
14242;BME280;7205;50.864;12.766;2022-10-20T02:33:08;98344.16;;;5.26;95.76
14242;BME280;7205;50.864;12.766;2022-10-20T02:35:36;98352.00;;;5.26;96.00
14242;BME280;7205;50.864;12.766;2022-10-20T02:38:03;98354.75;;;5.24;96.60
14242;BME280;7205;50.864;12.766;2022-10-20T02:40:29;98353.19;;;5.22;96.28
14242;BME280;7205;50.864;12.766;2022-10-20T02:42:56;98351.41;;;5.22;96.45
14242;BME280;7205;50.864;12.766;2022-10-20T02:45:25;98352.34;;;5.21;96.41
14242;BME280;7205;50.864;12.766;2022-10-20T02:47:51;98343.69;;;5.21;96.60
14242;BME280;7205;50.864;12.766;2022-10-20T02:50:18;98343.69;;;5.21;97.26
14242;BME280;7205;50.864;12.766;2022-10-20T02:52:45;98346.19;;;5.22;96.96
14242;BME280;7205;50.864;12.766;2022-10-20T02:55:12;98342.59;;;5.23;97.70
14242;BME280;7205;50.864;12.766;2022-10-20T02:57:39;98346.06;;;5.24;97.25
14242;BME280;7205;50.864;12.766;2022-10-20T03:00:07;98342.47;;;5.25;97.59
14242;BME280;7205;50.864;12.766;2022-10-20T03:02:36;98340.81;;;5.24;97.76
14242;BME280;7205;50.864;12.766;2022-10-20T03:05:03;98342.47;;;5.25;97.89
14242;BME280;7205;50.864;12.766;2022-10-20T03:07:30;98340.81;;;5.24;97.66
14242;BME280;7205;50.864;12.766;2022-10-20T03:09:57;98345.22;;;5.23;98.17
14242;BME280;7205;50.864;12.766;2022-10-20T03:12:24;98343.56;;;5.22;98.34
14242;BME280;7205;50.864;12.766;2022-10-20T03:14:51;98339.25;;;5.21;98.38
14242;BME280;7205;50.864;12.766;2022-10-20T03:17:17;98348.91;;;5.21;97.83
14242;BME280;7205;50.864;12.766;2022-10-20T03:19:46;98345.84;;;5.16;97.96
14242;BME280;7205;50.864;12.766;2022-10-20T03:22:12;98340.03;;;5.12;97.97
14242;BME280;7205;50.864;12.766;2022-10-20T03:24:39;98340.38;;;5.07;97.42
14242;BME280;7205;50.864;12.766;2022-10-20T03:27:06;98343.13;;;5.06;97.73
14242;BME280;7205;50.864;12.766;2022-10-20T03:29:33;98340.50;;;5.06;98.24
14242;BME280;7205;50.864;12.766;2022-10-20T03:32:00;98338.13;;;5.03;98.34
14242;BME280;7205;50.864;12.766;2022-10-20T03:34:27;98343.50;;;5.01;98.43
14242;BME280;7205;50.864;12.766;2022-10-20T03:36:55;98339.31;;;4.99;97.93
14242;BME280;7205;50.864;12.766;2022-10-20T03:39:22;98345.41;;;4.99;98.54
14242;BME280;7205;50.864;12.766;2022-10-20T03:41:49;98347.19;;;4.99;98.37
14242;BME280;7205;50.864;12.766;2022-10-20T03:44:16;98351.59;;;4.98;98.68
14242;BME280;7205;50.864;12.766;2022-10-20T03:46:43;98347.44;;;4.96;98.77
14242;BME280;7205;50.864;12.766;2022-10-20T03:49:09;98337.22;;;4.93;98.39
14242;BME280;7205;50.864;12.766;2022-10-20T03:51:36;98336.97;;;4.96;98.79
14242;BME280;7205;50.864;12.766;2022-10-20T03:54:04;98328.97;;;4.97;99.01
14242;BME280;7205;50.864;12.766;2022-10-20T03:56:31;98329.69;;;4.99;99.14
14242;BME280;7205;50.864;12.766;2022-10-20T03:58:58;98329.69;;;4.99;100.00
14242;BME280;7205;50.864;12.766;2022-10-20T04:01:28;98331.25;;;5.02;99.88
14242;BME280;7205;50.864;12.766;2022-10-20T04:03:56;98323.63;;;4.99;99.50
14242;BME280;7205;50.864;12.766;2022-10-20T04:06:23;98321.84;;;4.99;99.77
14242;BME280;7205;50.864;12.766;2022-10-20T04:08:50;98320.31;;;4.97;99.38
14242;BME280;7205;50.864;12.766;2022-10-20T04:11:18;98311.63;;;4.96;99.80
14242;BME280;7205;50.864;12.766;2022-10-20T04:13:45;98302.13;;;4.95;99.58
14242;BME280;7205;50.864;12.766;2022-10-20T04:16:12;98309.03;;;4.96;100.00
14242;BME280;7205;50.864;12.766;2022-10-20T04:18:39;98300.31;;;4.96;100.00
14242;BME280;7205;50.864;12.766;2022-10-20T04:21:05;98290.81;;;4.95;100.00
14242;BME280;7205;50.864;12.766;2022-10-20T04:23:32;98290.13;;;4.93;100.00
14242;BME280;7205;50.864;12.766;2022-10-20T04:25:59;98290.38;;;4.90;99.27
14242;BME280;7205;50.864;12.766;2022-10-20T04:28:34;98281.09;;;4.86;100.00
14242;BME280;7205;50.864;12.766;2022-10-20T04:31:00;98276.13;;;4.83;99.96
14242;BME280;7205;50.864;12.766;2022-10-20T04:33:27;98275.41;;;4.81;99.38
14242;BME280;7205;50.864;12.766;2022-10-20T04:35:57;98273.03;;;4.78;99.78
14242;BME280;7205;50.864;12.766;2022-10-20T04:38:25;98272.19;;;4.77;99.87
14242;BME280;7205;50.864;12.766;2022-10-20T04:40:56;98275.91;;;4.75;100.00
14242;BME280;7205;50.864;12.766;2022-10-20T04:43:23;98272.59;;;4.73;99.70
14242;BME280;7205;50.864;12.766;2022-10-20T04:45:52;98280.44;;;4.73;99.40
14242;BME280;7205;50.864;12.766;2022-10-20T04:48:23;98266.03;;;4.67;100.00
14242;BME280;7205;50.864;12.766;2022-10-20T04:50:58;98272.25;;;4.66;99.71
14242;BME280;7205;50.864;12.766;2022-10-20T04:53:25;98263.69;;;4.64;100.00
14242;BME280;7205;50.864;12.766;2022-10-20T04:55:53;98263.94;;;4.61;99.75
14242;BME280;7205;50.864;12.766;2022-10-20T04:58:20;98255.50;;;4.58;100.00
14242;BME280;7205;50.864;12.766;2022-10-20T05:00:47;98254.91;;;4.54;99.46
14242;BME280;7205;50.864;12.766;2022-10-20T05:03:15;98257.78;;;4.51;99.37
14242;BME280;7205;50.864;12.766;2022-10-20T05:05:43;98251.13;;;4.47;99.63
14242;BME280;7205;50.864;12.766;2022-10-20T05:08:11;98247.91;;;4.44;99.33
14242;BME280;7205;50.864;12.766;2022-10-20T05:10:38;98247.13;;;4.43;99.88
14242;BME280;7205;50.864;12.766;2022-10-20T05:13:05;98246.41;;;4.41;100.00
14242;BME280;7205;50.864;12.766;2022-10-20T05:19:26;98256.72;;;4.43;99.96
14242;BME280;7205;50.864;12.766;2022-10-20T05:23:25;98249.13;;;4.40;100.00
14242;BME280;7205;50.864;12.766;2022-10-20T05:31:02;98259.97;;;4.35;100.00
14242;BME280;7205;50.864;12.766;2022-10-20T05:41:42;98250.19;;;4.37;100.00
14242;BME280;7205;50.864;12.766;2022-10-20T05:53:36;98250.78;;;4.41;100.00
14242;BME280;7205;50.864;12.766;2022-10-20T06:07:16;98256.00;;;4.52;100.00
14242;BME280;7205;50.864;12.766;2022-10-20T06:09:43;98270.34;;;4.57;100.00
14242;BME280;7205;50.864;12.766;2022-10-20T06:12:10;98272.63;;;4.62;100.00
14242;BME280;7205;50.864;12.766;2022-10-20T06:14:37;98268.66;;;4.67;100.00
14242;BME280;7205;50.864;12.766;2022-10-20T06:17:05;98271.06;;;4.70;100.00
14242;BME280;7205;50.864;12.766;2022-10-20T06:19:32;98267.09;;;4.76;100.00
14242;BME280;7205;50.864;12.766;2022-10-20T06:21:59;98261.38;;;4.82;100.00
14242;BME280;7205;50.864;12.766;2022-10-20T06:24:26;98265.16;;;4.89;100.00
14242;BME280;7205;50.864;12.766;2022-10-20T06:26:52;98261.22;;;4.94;100.00
14242;BME280;7205;50.864;12.766;2022-10-20T06:29:19;98264.16;;;5.01;100.00
14242;BME280;7205;50.864;12.766;2022-10-20T06:31:48;98259.38;;;5.06;100.00
14242;BME280;7205;50.864;12.766;2022-10-20T06:34:17;98272.78;;;5.12;100.00
14242;BME280;7205;50.864;12.766;2022-10-20T06:36:46;98273.94;;;5.20;100.00
14242;BME280;7205;50.864;12.766;2022-10-20T06:39:14;98269.75;;;5.28;100.00
14242;BME280;7205;50.864;12.766;2022-10-20T06:41:41;98261.13;;;5.37;100.00
14242;BME280;7205;50.864;12.766;2022-10-20T06:44:17;98270.34;;;5.52;100.00
14242;BME280;7205;50.864;12.766;2022-10-20T06:46:44;98277.72;;;5.68;100.00
14242;BME280;7205;50.864;12.766;2022-10-20T06:49:12;98268.59;;;5.83;100.00
14242;BME280;7205;50.864;12.766;2022-10-20T06:51:40;98274.78;;;6.02;100.00
14242;BME280;7205;50.864;12.766;2022-10-20T06:54:07;98272.34;;;6.20;100.00
14242;BME280;7205;50.864;12.766;2022-10-20T06:56:35;98269.81;;;6.39;100.00
14242;BME280;7205;50.864;12.766;2022-10-20T06:59:03;98269.03;;;6.58;100.00
14242;BME280;7205;50.864;12.766;2022-10-20T07:01:31;98263.81;;;6.77;100.00
14242;BME280;7205;50.864;12.766;2022-10-20T07:03:59;98275.31;;;6.95;100.00
14242;BME280;7205;50.864;12.766;2022-10-20T07:06:29;98265.91;;;7.11;100.00
14242;BME280;7205;50.864;12.766;2022-10-20T07:08:58;98265.91;;;7.30;100.00
14242;BME280;7205;50.864;12.766;2022-10-20T07:11:27;98267.81;;;7.47;100.00
14242;BME280;7205;50.864;12.766;2022-10-20T07:13:54;98271.53;;;7.64;100.00
14242;BME280;7205;50.864;12.766;2022-10-20T07:16:23;98268.31;;;7.80;100.00
14242;BME280;7205;50.864;12.766;2022-10-20T07:18:50;98261.50;;;7.96;100.00
14242;BME280;7205;50.864;12.766;2022-10-20T07:21:19;98255.63;;;8.12;100.00
14242;BME280;7205;50.864;12.766;2022-10-20T07:23:47;98257.53;;;8.29;100.00
14242;BME280;7205;50.864;12.766;2022-10-20T07:26:18;98252.59;;;8.43;100.00
14242;BME280;7205;50.864;12.766;2022-10-20T07:28:47;98249.19;;;8.60;100.00
14242;BME280;7205;50.864;12.766;2022-10-20T07:31:16;98244.91;;;8.77;100.00
14242;BME280;7205;50.864;12.766;2022-10-20T07:33:44;98239.81;;;8.93;100.00
14242;BME280;7205;50.864;12.766;2022-10-20T07:36:12;98238.13;;;9.10;100.00
14242;BME280;7205;50.864;12.766;2022-10-20T07:38:39;98234.97;;;9.24;100.00
14242;BME280;7205;50.864;12.766;2022-10-20T07:41:06;98217.81;;;9.37;100.00
14242;BME280;7205;50.864;12.766;2022-10-20T07:43:35;98216.44;;;9.51;100.00
14242;BME280;7205;50.864;12.766;2022-10-20T07:46:02;98197.69;;;9.62;100.00
14242;BME280;7205;50.864;12.766;2022-10-20T07:48:29;98196.31;;;9.75;100.00
14242;BME280;7205;50.864;12.766;2022-10-20T07:51:12;98202.13;;;9.87;100.00
14242;BME280;7205;50.864;12.766;2022-10-20T07:53:39;98197.41;;;9.98;99.78
14242;BME280;7205;50.864;12.766;2022-10-20T07:56:06;98199.66;;;10.11;98.55
14242;BME280;7205;50.864;12.766;2022-10-20T07:58:34;98191.59;;;10.21;97.86
14242;BME280;7205;50.864;12.766;2022-10-20T08:01:01;98186.03;;;10.32;96.64
14242;BME280;7205;50.864;12.766;2022-10-20T08:03:28;98183.94;;;10.43;96.30
14242;BME280;7205;50.864;12.766;2022-10-20T08:05:55;98181.81;;;10.55;94.91
14242;BME280;7205;50.864;12.766;2022-10-20T08:22:44;98161.06;;;11.16;90.79
14242;BME280;7205;50.864;12.766;2022-10-20T08:25:13;98159.25;;;11.24;89.57
14242;BME280;7205;50.864;12.766;2022-10-20T08:27:40;98159.06;;;11.34;89.35
14242;BME280;7205;50.864;12.766;2022-10-20T08:30:08;98151.28;;;11.40;88.25
14242;BME280;7205;50.864;12.766;2022-10-20T08:32:37;98147.00;;;11.48;87.75
14242;BME280;7205;50.864;12.766;2022-10-20T08:35:05;98134.75;;;11.55;86.81
14242;BME280;7205;50.864;12.766;2022-10-20T08:37:33;98130.44;;;11.62;86.17
14242;BME280;7205;50.864;12.766;2022-10-20T08:40:02;98128.31;;;11.65;85.64
14242;BME280;7205;50.864;12.766;2022-10-20T08:42:38;98122.50;;;11.70;84.12
14242;BME280;7205;50.864;12.766;2022-10-20T08:45:13;98114.03;;;11.74;83.24
14242;BME280;7205;50.864;12.766;2022-10-20T08:47:41;98116.34;;;11.77;81.73
14242;BME280;7205;50.864;12.766;2022-10-20T08:50:11;98107.25;;;11.80;80.65
14242;BME280;7205;50.864;12.766;2022-10-20T08:52:41;98107.75;;;11.83;79.74
14242;BME280;7205;50.864;12.766;2022-10-20T08:55:18;98102.94;;;11.87;78.41
14242;BME280;7205;50.864;12.766;2022-10-20T08:57:47;98098.13;;;11.90;77.52
14242;BME280;7205;50.864;12.766;2022-10-20T09:00:16;98100.25;;;11.95;77.11
14242;BME280;7205;50.864;12.766;2022-10-20T09:02:44;98107.50;;;12.01;76.48
14242;BME280;7205;50.864;12.766;2022-10-20T09:05:12;98099.84;;;12.06;75.62
14242;BME280;7205;50.864;12.766;2022-10-20T09:07:41;98095.88;;;12.10;74.50
14242;BME280;7205;50.864;12.766;2022-10-20T09:10:25;98090.06;;;12.14;74.19
14242;BME280;7205;50.864;12.766;2022-10-20T09:12:54;98078.78;;;12.20;72.76
14242;BME280;7205;50.864;12.766;2022-10-20T09:15:21;98076.63;;;12.24;71.71
14242;BME280;7205;50.864;12.766;2022-10-20T09:17:54;98072.25;;;12.31;71.19
14242;BME280;7205;50.864;12.766;2022-10-20T09:20:24;98066.25;;;12.37;70.20
14242;BME280;7205;50.864;12.766;2022-10-20T09:22:53;98060.25;;;12.43;69.21
14242;BME280;7205;50.864;12.766;2022-10-20T09:25:23;98053.63;;;12.47;68.45
14242;BME280;7205;50.864;12.766;2022-10-20T09:27:52;98041.66;;;12.51;67.71
14242;BME280;7205;50.864;12.766;2022-10-20T09:30:22;98035.84;;;12.55;67.07
14242;BME280;7205;50.864;12.766;2022-10-20T09:32:50;98035.47;;;12.58;66.35
14242;BME280;7205;50.864;12.766;2022-10-20T09:35:21;98030.28;;;12.65;66.26
14242;BME280;7205;50.864;12.766;2022-10-20T09:37:55;98026.28;;;12.69;66.21
14242;BME280;7205;50.864;12.766;2022-10-20T09:40:25;98024.91;;;12.73;65.68
14242;BME280;7205;50.864;12.766;2022-10-20T09:42:54;98026.88;;;12.79;65.21
14242;BME280;7205;50.864;12.766;2022-10-20T09:45:23;98025.47;;;12.83;65.13
14242;BME280;7205;50.864;12.766;2022-10-20T09:47:55;98019.47;;;12.89;64.72
14242;BME280;7205;50.864;12.766;2022-10-20T09:50:27;98012.00;;;12.93;64.48
14242;BME280;7205;50.864;12.766;2022-10-20T09:52:57;98017.56;;;12.98;64.41
14242;BME280;7205;50.864;12.766;2022-10-20T09:55:28;98018.88;;;13.02;63.89
14242;BME280;7205;50.864;12.766;2022-10-20T09:57:57;98009.38;;;13.07;63.80
14242;BME280;7205;50.864;12.766;2022-10-20T10:00:26;98011.03;;;13.08;62.86
14242;BME280;7205;50.864;12.766;2022-10-20T10:03:13;98002.34;;;13.14;62.29
14242;BME280;7205;50.864;12.766;2022-10-20T10:05:49;97996.31;;;13.20;61.86
14242;BME280;7205;50.864;12.766;2022-10-20T10:08:17;98002.72;;;13.26;61.17
14242;BME280;7205;50.864;12.766;2022-10-20T10:11:00;98004.44;;;13.33;61.11
14242;BME280;7205;50.864;12.766;2022-10-20T10:13:30;97993.13;;;13.39;60.87
14242;BME280;7205;50.864;12.766;2022-10-20T10:15:59;97994.84;;;13.47;60.40
14242;BME280;7205;50.864;12.766;2022-10-20T10:18:27;97981.00;;;13.51;59.95
14242;BME280;7205;50.864;12.766;2022-10-20T10:21:03;97977.00;;;13.55;59.04
14242;BME280;7205;50.864;12.766;2022-10-20T10:23:33;97977.44;;;13.59;58.16
14242;BME280;7205;50.864;12.766;2022-10-20T10:26:02;97982.19;;;13.63;58.18
14242;BME280;7205;50.864;12.766;2022-10-20T10:28:56;97987.75;;;13.68;57.70
14242;BME280;7205;50.864;12.766;2022-10-20T10:31:24;97988.03;;;13.73;57.64
14242;BME280;7205;50.864;12.766;2022-10-20T10:33:54;97982.19;;;13.78;56.57
14242;BME280;7205;50.864;12.766;2022-10-20T10:36:33;97971.19;;;13.81;56.42
14242;BME280;7205;50.864;12.766;2022-10-20T10:39:01;97973.06;;;13.87;55.83
14242;BME280;7205;50.864;12.766;2022-10-20T10:41:40;97967.19;;;13.92;54.78
14242;BME280;7205;50.864;12.766;2022-10-20T10:44:18;97964.63;;;13.98;55.27
14242;BME280;7205;50.864;12.766;2022-10-20T10:59:11;97945.94;;;14.27;52.69
14242;BME280;7205;50.864;12.766;2022-10-20T11:01:57;97944.94;;;14.28;52.27
14242;BME280;7205;50.864;12.766;2022-10-20T11:04:47;97946.38;;;14.31;52.34
14242;BME280;7205;50.864;12.766;2022-10-20T11:07:28;97945.34;;;14.32;50.68
14242;BME280;7205;50.864;12.766;2022-10-20T11:10:06;97939.88;;;14.33;49.69
14242;BME280;7205;50.864;12.766;2022-10-20T11:12:48;97940.94;;;14.39;49.73
14242;BME280;7205;50.864;12.766;2022-10-20T11:15:32;97928.28;;;14.41;49.83
14242;BME280;7205;50.864;12.766;2022-10-20T11:18:05;97921.78;;;14.43;49.52
14242;BME280;7205;50.864;12.766;2022-10-20T11:20:44;97918.09;;;14.44;49.32
14242;BME280;7205;50.864;12.766;2022-10-20T11:23:35;97919.53;;;14.47;49.18
14242;BME280;7205;50.864;12.766;2022-10-20T11:26:13;97905.03;;;14.49;48.72
14242;BME280;7205;50.864;12.766;2022-10-20T11:28:44;97906.13;;;14.55;48.12
14242;BME280;7205;50.864;12.766;2022-10-20T11:31:21;97903.25;;;14.56;47.35
14242;BME280;7205;50.864;12.766;2022-10-20T11:33:55;97893.88;;;14.60;47.26
14242;BME280;7205;50.864;12.766;2022-10-20T11:59:21;97853.31;;;14.79;45.25
14242;BME280;7205;50.864;12.766;2022-10-20T12:02:03;97857.22;;;14.83;45.48
14242;BME280;7205;50.864;12.766;2022-10-20T12:05:11;97861.53;;;14.84;45.40
14242;BME280;7205;50.864;12.766;2022-10-20T12:08:13;97860.91;;;14.89;44.60
14242;BME280;7205;50.864;12.766;2022-10-20T12:10:50;97855.19;;;14.92;43.90
14242;BME280;7205;50.864;12.766;2022-10-20T12:13:46;97845.81;;;14.96;43.91
14242;BME280;7205;50.864;12.766;2022-10-20T12:19:26;97844.03;;;15.03;44.01
14242;BME280;7205;50.864;12.766;2022-10-20T12:21:55;97820.72;;;15.05;43.69
14242;BME280;7205;50.864;12.766;2022-10-20T12:24:31;97825.44;;;15.09;42.95
14242;BME280;7205;50.864;12.766;2022-10-20T12:30:41;97803.75;;;15.19;41.37
14242;BME280;7205;50.864;12.766;2022-10-20T12:33:16;97805.44;;;15.27;41.55
14242;BME280;7205;50.864;12.766;2022-10-20T12:36:00;97801.56;;;15.36;41.51
14242;BME280;7205;50.864;12.766;2022-10-20T12:38:38;97798.75;;;15.44;40.71
14242;BME280;7205;50.864;12.766;2022-10-20T12:41:10;97786.88;;;15.53;40.27
14242;BME280;7205;50.864;12.766;2022-10-20T12:43:47;97778.53;;;15.62;39.79
14242;BME280;7205;50.864;12.766;2022-10-20T12:46:19;97774.00;;;15.69;40.41
14242;BME280;7205;50.864;12.766;2022-10-20T12:48:48;97771.97;;;15.78;40.55
14242;BME280;7205;50.864;12.766;2022-10-20T12:51:31;97764.81;;;15.85;39.69
14242;BME280;7205;50.864;12.766;2022-10-20T12:54:03;97764.78;;;15.91;39.93
14242;BME280;7205;50.864;12.766;2022-10-20T12:56:35;97760.91;;;15.94;39.79
14242;BME280;7205;50.864;12.766;2022-10-20T13:05:46;97768.50;;;15.90;38.52
14242;BME280;7205;50.864;12.766;2022-10-20T13:12:38;97771.16;;;15.90;38.00
14242;BME280;7205;50.864;12.766;2022-10-20T13:15:09;97774.66;;;15.97;38.02
14242;BME280;7205;50.864;12.766;2022-10-20T13:17:49;97781.19;;;16.01;37.54
14242;BME280;7205;50.864;12.766;2022-10-20T13:20:28;97775.44;;;16.04;37.52
14242;BME280;7205;50.864;12.766;2022-10-20T13:23:02;97779.34;;;16.08;37.64
14242;BME280;7205;50.864;12.766;2022-10-20T13:53:56;97750.88;;;15.76;39.01
14242;BME280;7205;50.864;12.766;2022-10-20T13:56:30;97751.69;;;15.77;38.41
14242;BME280;7205;50.864;12.766;2022-10-20T13:59:00;97750.66;;;15.78;38.67
14242;BME280;7205;50.864;12.766;2022-10-20T14:01:29;97741.88;;;15.77;38.85
14242;BME280;7205;50.864;12.766;2022-10-20T14:03:56;97742.88;;;15.76;38.06
14242;BME280;7205;50.864;12.766;2022-10-20T14:06:30;97743.72;;;15.77;38.49
14242;BME280;7205;50.864;12.766;2022-10-20T14:09:09;97739.00;;;15.79;38.35
14242;BME280;7205;50.864;12.766;2022-10-20T14:11:36;97739.81;;;15.79;38.42
14242;BME280;7205;50.864;12.766;2022-10-20T14:14:03;97744.13;;;15.80;38.54
14242;BME280;7205;50.864;12.766;2022-10-20T14:16:31;97738.78;;;15.80;39.05
14242;BME280;7205;50.864;12.766;2022-10-20T14:22:11;97747.16;;;15.71;38.50
14242;BME280;7205;50.864;12.766;2022-10-20T14:24:41;97743.09;;;15.68;39.10
14242;BME280;7205;50.864;12.766;2022-10-20T14:27:14;97751.28;;;15.67;39.16
14242;BME280;7205;50.864;12.766;2022-10-20T14:29:43;97743.09;;;15.62;39.22
14242;BME280;7205;50.864;12.766;2022-10-20T14:32:15;97729.16;;;15.53;39.11
14242;BME280;7205;50.864;12.766;2022-10-20T14:34:53;97737.75;;;15.49;39.30
14242;BME280;7205;50.864;12.766;2022-10-20T14:37:28;97735.28;;;15.41;39.48
14242;BME280;7205;50.864;12.766;2022-10-20T14:39:58;97726.47;;;15.34;39.70
14242;BME280;7205;50.864;12.766;2022-10-20T14:42:29;97718.84;;;15.24;39.66
14242;BME280;7205;50.864;12.766;2022-10-20T14:45:01;97721.91;;;15.15;40.01
14242;BME280;7205;50.864;12.766;2022-10-20T14:47:40;97715.31;;;15.04;40.11
14242;BME280;7205;50.864;12.766;2022-10-20T14:50:24;97721.25;;;14.93;40.68
14242;BME280;7205;50.864;12.766;2022-10-20T14:52:52;97720.81;;;14.83;41.00
14242;BME280;7205;50.864;12.766;2022-10-20T14:55:52;97720.56;;;14.71;41.66
14242;BME280;7205;50.864;12.766;2022-10-20T15:02:02;97726.34;;;14.41;41.70
14242;BME280;7205;50.864;12.766;2022-10-20T15:04:38;97729.38;;;14.31;42.40
14242;BME280;7205;50.864;12.766;2022-10-20T15:07:45;97734.94;;;14.15;42.78
14242;BME280;7205;50.864;12.766;2022-10-20T15:10:17;97735.69;;;14.03;43.09
14242;BME280;7205;50.864;12.766;2022-10-20T15:13:16;97736.22;;;13.92;44.00
14242;BME280;7205;50.864;12.766;2022-10-20T15:23:04;97716.28;;;13.47;45.19
14242;BME280;7205;50.864;12.766;2022-10-20T15:26:03;97717.44;;;13.38;45.49
14242;BME280;7205;50.864;12.766;2022-10-20T15:29:06;97730.75;;;13.23;46.43
14242;BME280;7205;50.864;12.766;2022-10-20T15:32:41;97713.28;;;13.08;46.70
14242;BME280;7205;50.864;12.766;2022-10-20T15:35:10;97707.44;;;12.98;47.03
14242;BME280;7205;50.864;12.766;2022-10-20T15:37:50;97710.38;;;12.88;47.12
14242;BME280;7205;50.864;12.766;2022-10-20T15:41:43;97710.69;;;12.79;47.17
14242;BME280;7205;50.864;12.766;2022-10-20T15:44:14;97706.03;;;12.66;47.92
14242;BME280;7205;50.864;12.766;2022-10-20T15:48:01;97707.72;;;12.52;48.58
14242;BME280;7205;50.864;12.766;2022-10-20T15:51:00;97714.31;;;12.42;48.72
14242;BME280;7205;50.864;12.766;2022-10-20T15:57:11;97698.34;;;12.21;49.24
14242;BME280;7205;50.864;12.766;2022-10-20T15:59:51;97693.53;;;12.10;49.69
14242;BME280;7205;50.864;12.766;2022-10-20T16:02:18;97697.72;;;12.04;50.44
14242;BME280;7205;50.864;12.766;2022-10-20T16:04:48;97694.97;;;11.98;50.73